sensor_id;sensor_type;location;lat;lon;timestamp;pressure;altitude;pressure_sealevel;temperature;humidity
64933;BME280;51446;53.850;10.662;2022-09-17T00:01:23;100195.13;;;10.81;100.00
64933;BME280;51446;53.850;10.662;2022-09-17T00:03:55;100187.09;;;10.54;100.00
64933;BME280;51446;53.850;10.662;2022-09-17T00:06:23;100177.47;;;10.50;100.00
64933;BME280;51446;53.850;10.662;2022-09-17T00:08:48;100198.47;;;10.56;100.00
64933;BME280;51446;53.850;10.662;2022-09-17T00:11:21;100201.88;;;10.41;100.00
64933;BME280;51446;53.850;10.662;2022-09-17T00:13:48;100206.22;;;10.44;100.00
64933;BME280;51446;53.850;10.662;2022-09-17T00:16:21;100208.03;;;10.53;100.00
64933;BME280;51446;53.850;10.662;2022-09-17T00:18:46;100207.16;;;10.49;100.00
64933;BME280;51446;53.850;10.662;2022-09-17T00:21:16;100208.00;;;10.47;100.00
64933;BME280;51446;53.850;10.662;2022-09-17T00:23:42;100210.63;;;10.48;100.00
64933;BME280;51446;53.850;10.662;2022-09-17T00:26:07;100208.00;;;10.47;100.00
64933;BME280;51446;53.850;10.662;2022-09-17T00:28:32;100208.00;;;10.50;100.00
64933;BME280;51446;53.850;10.662;2022-09-17T00:30:57;100216.78;;;10.49;100.00
64933;BME280;51446;53.850;10.662;2022-09-17T00:33:23;100204.56;;;10.57;100.00
64933;BME280;51446;53.850;10.662;2022-09-17T00:35:59;100222.09;;;10.64;100.00
64933;BME280;51446;53.850;10.662;2022-09-17T00:38:25;100216.00;;;10.65;100.00
64933;BME280;51446;53.850;10.662;2022-09-17T00:40:51;100216.84;;;10.63;100.00
64933;BME280;51446;53.850;10.662;2022-09-17T00:43:38;100210.75;;;10.68;100.00
64933;BME280;51446;53.850;10.662;2022-09-17T00:46:23;100205.53;;;10.74;100.00
64933;BME280;51446;53.850;10.662;2022-09-17T00:48:50;100206.47;;;10.80;100.00
64933;BME280;51446;53.850;10.662;2022-09-17T00:51:20;100209.94;;;10.80;100.00
64933;BME280;51446;53.850;10.662;2022-09-17T00:53:47;100212.63;;;10.83;100.00
64933;BME280;51446;53.850;10.662;2022-09-17T00:56:18;100214.34;;;10.80;100.00
64933;BME280;51446;53.850;10.662;2022-09-17T00:58:47;100211.78;;;10.92;100.00
64933;BME280;51446;53.850;10.662;2022-09-17T01:01:13;100222.34;;;11.09;100.00
64933;BME280;51446;53.850;10.662;2022-09-17T01:03:39;100221.47;;;11.05;100.00
64933;BME280;51446;53.850;10.662;2022-09-17T01:06:26;100218.00;;;11.09;100.00
64933;BME280;51446;53.850;10.662;2022-09-17T01:09:05;100204.81;;;10.97;100.00
64933;BME280;51446;53.850;10.662;2022-09-17T01:11:49;100226.75;;;11.18;100.00
64933;BME280;51446;53.850;10.662;2022-09-17T01:17:21;100220.63;;;11.09;100.00
64933;BME280;51446;53.850;10.662;2022-09-17T01:20:06;100215.41;;;11.19;100.00
64933;BME280;51446;53.850;10.662;2022-09-17T01:23:07;100210.16;;;11.16;100.00
64933;BME280;51446;53.850;10.662;2022-09-17T01:31:52;100218.09;;;11.42;100.00
64933;BME280;51446;53.850;10.662;2022-09-17T01:34:44;100228.59;;;11.33;100.00
64933;BME280;51446;53.850;10.662;2022-09-17T01:37:35;100225.09;;;11.34;100.00
64933;BME280;51446;53.850;10.662;2022-09-17T01:40:27;100224.22;;;11.33;100.00
64933;BME280;51446;53.850;10.662;2022-09-17T01:45:41;100229.44;;;11.28;100.00
64933;BME280;51446;53.850;10.662;2022-09-17T01:48:24;100228.59;;;11.30;100.00
64933;BME280;51446;53.850;10.662;2022-09-17T01:51:07;100219.81;;;11.32;100.00
64933;BME280;51446;53.850;10.662;2022-09-17T01:53:55;100227.75;;;11.49;100.00
64933;BME280;51446;53.850;10.662;2022-09-17T01:56:29;100220.78;;;11.57;100.00
64933;BME280;51446;53.850;10.662;2022-09-17T01:59:04;100234.78;;;11.49;98.89
64933;BME280;51446;53.850;10.662;2022-09-17T02:01:32;100224.28;;;11.58;99.25
64933;BME280;51446;53.850;10.662;2022-09-17T02:04:06;100235.63;;;11.49;98.50
64933;BME280;51446;53.850;10.662;2022-09-17T02:06:37;100234.78;;;11.52;98.33
64933;BME280;51446;53.850;10.662;2022-09-17T02:09:16;100229.53;;;11.53;98.71
64933;BME280;51446;53.850;10.662;2022-09-17T02:11:45;100229.50;;;11.44;98.15
64933;BME280;51446;53.850;10.662;2022-09-17T02:14:20;100234.78;;;11.55;97.93
64933;BME280;51446;53.850;10.662;2022-09-17T02:16:51;100235.69;;;11.60;97.53
64933;BME280;51446;53.850;10.662;2022-09-17T02:19:27;100231.34;;;11.71;97.29
64933;BME280;51446;53.850;10.662;2022-09-17T02:22:18;100227.81;;;11.57;96.28
64933;BME280;51446;53.850;10.662;2022-09-17T02:24:46;100229.53;;;11.59;96.68
64933;BME280;51446;53.850;10.662;2022-09-17T02:29:50;100228.66;;;11.59;97.16
64933;BME280;51446;53.850;10.662;2022-09-17T02:32:16;100238.25;;;11.51;96.78
64933;BME280;51446;53.850;10.662;2022-09-17T02:34:41;100229.56;;;11.64;97.63
64933;BME280;51446;53.850;10.662;2022-09-17T02:37:07;100233.91;;;11.57;95.59
64933;BME280;51446;53.850;10.662;2022-09-17T02:39:33;100229.53;;;11.49;95.93
64933;BME280;51446;53.850;10.662;2022-09-17T02:42:20;100231.31;;;11.63;96.38
64933;BME280;51446;53.850;10.662;2022-09-17T02:45:02;100236.56;;;11.65;96.13
64933;BME280;51446;53.850;10.662;2022-09-17T02:47:41;100232.16;;;11.53;95.63
64933;BME280;51446;53.850;10.662;2022-09-17T02:53:04;100229.53;;;11.55;95.25
64933;BME280;51446;53.850;10.662;2022-09-17T02:58:51;100235.69;;;11.60;95.95
64933;BME280;51446;53.850;10.662;2022-09-17T03:01:27;100228.59;;;11.40;95.23
64933;BME280;51446;53.850;10.662;2022-09-17T03:03:53;100229.44;;;11.28;96.07
64933;BME280;51446;53.850;10.662;2022-09-17T03:06:20;100234.78;;;11.49;95.72
64933;BME280;51446;53.850;10.662;2022-09-17T03:08:46;100232.94;;;11.27;95.69
64933;BME280;51446;53.850;10.662;2022-09-17T03:11:11;100236.47;;;11.30;95.11
64933;BME280;51446;53.850;10.662;2022-09-17T03:13:38;100237.34;;;11.38;94.56
64933;BME280;51446;53.850;10.662;2022-09-17T03:16:03;100224.19;;;11.22;94.24
64933;BME280;51446;53.850;10.662;2022-09-17T03:18:30;100229.44;;;11.32;94.48
64933;BME280;51446;53.850;10.662;2022-09-17T03:20:55;100239.09;;;11.39;94.00
64933;BME280;51446;53.850;10.662;2022-09-17T03:23:20;100230.28;;;11.18;94.48
64933;BME280;51446;53.850;10.662;2022-09-17T03:25:46;100222.41;;;11.14;94.10
64933;BME280;51446;53.850;10.662;2022-09-17T03:28:13;100231.13;;;11.11;94.24
64933;BME280;51446;53.850;10.662;2022-09-17T03:30:38;100225.88;;;11.09;94.17
64933;BME280;51446;53.850;10.662;2022-09-17T03:33:04;100231.97;;;11.05;94.90
64933;BME280;51446;53.850;10.662;2022-09-17T03:35:29;100227.63;;;11.12;94.67
64933;BME280;51446;53.850;10.662;2022-09-17T03:37:54;100225.75;;;10.85;95.27
64933;BME280;51446;53.850;10.662;2022-09-17T03:40:19;100233.63;;;10.91;96.78
64933;BME280;51446;53.850;10.662;2022-09-17T03:42:45;100237.13;;;10.91;96.45
64933;BME280;51446;53.850;10.662;2022-09-17T03:45:10;100235.34;;;10.89;96.09
64933;BME280;51446;53.850;10.662;2022-09-17T03:47:36;100237.00;;;10.68;96.51
64933;BME280;51446;53.850;10.662;2022-09-17T03:50:03;100234.38;;;10.70;97.54
64933;BME280;51446;53.850;10.662;2022-09-17T03:52:29;100241.34;;;10.66;97.53
64933;BME280;51446;53.850;10.662;2022-09-17T03:54:54;100239.63;;;10.73;98.38
64933;BME280;51446;53.850;10.662;2022-09-17T03:57:19;100235.97;;;10.48;97.48
64933;BME280;51446;53.850;10.662;2022-09-17T03:59:44;100237.81;;;10.64;98.68
64933;BME280;51446;53.850;10.662;2022-09-17T04:02:10;100244.78;;;10.56;98.32
64933;BME280;51446;53.850;10.662;2022-09-17T04:04:35;100245.63;;;10.53;97.39
64933;BME280;51446;53.850;10.662;2022-09-17T04:07:00;100248.13;;;10.39;98.19
64933;BME280;51446;53.850;10.662;2022-09-17T04:09:26;100247.25;;;10.37;98.69
64933;BME280;51446;53.850;10.662;2022-09-17T04:11:51;100248.16;;;10.44;97.72
64933;BME280;51446;53.850;10.662;2022-09-17T04:14:16;100249.06;;;10.46;97.98
64933;BME280;51446;53.850;10.662;2022-09-17T04:16:41;100246.28;;;10.31;98.21
64933;BME280;51446;53.850;10.662;2022-09-17T04:19:07;100246.25;;;10.24;98.17
64933;BME280;51446;53.850;10.662;2022-09-17T04:21:32;100244.72;;;10.51;100.00
64933;BME280;51446;53.850;10.662;2022-09-17T04:23:57;100255.78;;;10.19;98.14
64933;BME280;51446;53.850;10.662;2022-09-17T04:26:23;100247.97;;;10.25;98.53
64933;BME280;51446;53.850;10.662;2022-09-17T04:28:48;100255.00;;;10.27;98.18
64933;BME280;51446;53.850;10.662;2022-09-17T04:31:13;100260.13;;;10.13;97.84
64933;BME280;51446;53.850;10.662;2022-09-17T04:33:38;100264.44;;;10.11;97.81
64933;BME280;51446;53.850;10.662;2022-09-17T04:36:04;100262.81;;;10.20;97.53
64933;BME280;51446;53.850;10.662;2022-09-17T04:38:29;100261.84;;;10.14;97.52
64933;BME280;51446;53.850;10.662;2022-09-17T04:40:54;100260.84;;;9.98;97.15
64933;BME280;51446;53.850;10.662;2022-09-17T04:43:21;100267.88;;;10.03;97.93
64933;BME280;51446;53.850;10.662;2022-09-17T04:45:47;100267.72;;;9.89;97.92
64933;BME280;51446;53.850;10.662;2022-09-17T04:48:13;100271.28;;;9.93;98.31
64933;BME280;51446;53.850;10.662;2022-09-17T04:50:39;100273.06;;;9.99;97.80
64933;BME280;51446;53.850;10.662;2022-09-17T04:53:04;100280.06;;;9.98;97.58
64933;BME280;51446;53.850;10.662;2022-09-17T04:55:29;100280.94;;;10.00;97.50
64933;BME280;51446;53.850;10.662;2022-09-17T04:57:55;100284.34;;;9.92;97.87
64933;BME280;51446;53.850;10.662;2022-09-17T05:00:21;100287.00;;;9.95;98.26
64933;BME280;51446;53.850;10.662;2022-09-17T05:02:51;100287.81;;;9.87;96.82
64933;BME280;51446;53.850;10.662;2022-09-17T05:05:17;100292.16;;;9.87;97.32
64933;BME280;51446;53.850;10.662;2022-09-17T05:07:42;100292.22;;;9.93;97.31
64933;BME280;51446;53.850;10.662;2022-09-17T05:10:09;100291.25;;;9.83;97.03
64933;BME280;51446;53.850;10.662;2022-09-17T05:12:34;100291.38;;;9.94;97.80
64933;BME280;51446;53.850;10.662;2022-09-17T05:15:00;100300.09;;;9.93;97.19
64933;BME280;51446;53.850;10.662;2022-09-17T05:17:25;100288.81;;;10.00;96.74
64933;BME280;51446;53.850;10.662;2022-09-17T05:19:50;100287.88;;;9.97;96.76
64933;BME280;51446;53.850;10.662;2022-09-17T05:22:17;100289.47;;;9.82;96.38
64933;BME280;51446;53.850;10.662;2022-09-17T05:24:43;100284.19;;;9.78;96.56
64933;BME280;51446;53.850;10.662;2022-09-17T05:27:08;100283.53;;;9.96;97.16
64933;BME280;51446;53.850;10.662;2022-09-17T05:29:33;100280.06;;;9.98;97.31
64933;BME280;51446;53.850;10.662;2022-09-17T05:31:58;100279.16;;;9.98;96.46
64933;BME280;51446;53.850;10.662;2022-09-17T05:34:24;100293.19;;;10.01;96.86
64933;BME280;51446;53.850;10.662;2022-09-17T05:36:49;100287.97;;;10.03;96.67
64933;BME280;51446;53.850;10.662;2022-09-17T05:39:14;100287.06;;;10.02;95.88
64933;BME280;51446;53.850;10.662;2022-09-17T05:41:40;100289.84;;;10.19;95.28
64933;BME280;51446;53.850;10.662;2022-09-17T05:44:05;100288.09;;;10.17;94.63
64933;BME280;51446;53.850;10.662;2022-09-17T05:46:30;100289.91;;;10.24;94.73
64933;BME280;51446;53.850;10.662;2022-09-17T05:48:56;100295.44;;;10.53;94.79
64933;BME280;51446;53.850;10.662;2022-09-17T05:51:22;100293.53;;;10.34;93.71
64933;BME280;51446;53.850;10.662;2022-09-17T05:53:47;100298.13;;;10.61;93.26
64933;BME280;51446;53.850;10.662;2022-09-17T05:56:13;100302.66;;;10.81;92.18
64933;BME280;51446;53.850;10.662;2022-09-17T05:58:38;100301.81;;;10.86;91.50
64933;BME280;51446;53.850;10.662;2022-09-17T06:01:03;100311.50;;;10.95;91.53
64933;BME280;51446;53.850;10.662;2022-09-17T06:03:28;100309.75;;;10.99;91.17
64933;BME280;51446;53.850;10.662;2022-09-17T06:05:56;100314.16;;;11.01;91.05
64933;BME280;51446;53.850;10.662;2022-09-17T06:08:27;100309.91;;;11.25;90.27
64933;BME280;51446;53.850;10.662;2022-09-17T06:10:52;100309.13;;;11.37;89.03
64933;BME280;51446;53.850;10.662;2022-09-17T06:13:19;100318.78;;;11.50;88.17
64933;BME280;51446;53.850;10.662;2022-09-17T06:15:49;100320.59;;;11.63;87.18
64933;BME280;51446;53.850;10.662;2022-09-17T06:18:15;100327.59;;;11.57;87.23
64933;BME280;51446;53.850;10.662;2022-09-17T06:20:40;100329.41;;;11.75;87.09
64933;BME280;51446;53.850;10.662;2022-09-17T06:23:05;100324.31;;;12.15;85.38
64933;BME280;51446;53.850;10.662;2022-09-17T06:25:30;100322.56;;;12.37;83.21
64933;BME280;51446;53.850;10.662;2022-09-17T06:27:56;100316.44;;;12.29;82.30
64933;BME280;51446;53.850;10.662;2022-09-17T06:30:21;100319.06;;;12.98;80.26
64933;BME280;51446;53.850;10.662;2022-09-17T06:32:46;100329.50;;;13.56;77.90
64933;BME280;51446;53.850;10.662;2022-09-17T06:35:11;100315.50;;;13.16;78.04
64933;BME280;51446;53.850;10.662;2022-09-17T06:37:37;100322.31;;;13.85;76.16
64933;BME280;51446;53.850;10.662;2022-09-17T06:40:05;100326.06;;;14.88;73.71
64933;BME280;51446;53.850;10.662;2022-09-17T06:42:30;100324.50;;;15.51;68.81
64933;BME280;51446;53.850;10.662;2022-09-17T06:44:55;100321.13;;;15.40;68.21
64933;BME280;51446;53.850;10.662;2022-09-17T06:47:23;100324.72;;;16.63;65.86
64933;BME280;51446;53.850;10.662;2022-09-17T06:49:48;100321.59;;;16.94;64.67
64933;BME280;51446;53.850;10.662;2022-09-17T06:52:14;100323.41;;;17.39;61.41
64933;BME280;51446;53.850;10.662;2022-09-17T06:54:39;100326.19;;;16.83;61.83
64933;BME280;51446;53.850;10.662;2022-09-17T06:57:05;100330.38;;;16.96;63.03
64933;BME280;51446;53.850;10.662;2022-09-17T06:59:30;100330.34;;;17.90;62.46
64933;BME280;51446;53.850;10.662;2022-09-17T07:01:55;100328.50;;;17.03;62.49
64933;BME280;51446;53.850;10.662;2022-09-17T07:04:21;100321.41;;;17.05;61.98
64933;BME280;51446;53.850;10.662;2022-09-17T07:06:46;100328.22;;;16.09;62.86
64933;BME280;51446;53.850;10.662;2022-09-17T07:09:11;100323.75;;;16.69;62.17
64933;BME280;51446;53.850;10.662;2022-09-17T07:11:37;100318.03;;;16.97;62.49
64933;BME280;51446;53.850;10.662;2022-09-17T07:14:03;100325.31;;;16.81;60.04
64933;BME280;51446;53.850;10.662;2022-09-17T07:16:29;100328.28;;;16.62;60.90
64933;BME280;51446;53.850;10.662;2022-09-17T07:18:57;100326.34;;;16.72;61.16
64933;BME280;51446;53.850;10.662;2022-09-17T07:21:22;100320.03;;;16.82;61.84
64933;BME280;51446;53.850;10.662;2022-09-17T07:23:47;100324.41;;;17.33;58.67
64933;BME280;51446;53.850;10.662;2022-09-17T07:26:14;100329.63;;;17.38;58.66
64933;BME280;51446;53.850;10.662;2022-09-17T07:28:40;100329.59;;;17.40;58.06
64933;BME280;51446;53.850;10.662;2022-09-17T07:31:06;100334.63;;;17.54;56.73
64933;BME280;51446;53.850;10.662;2022-09-17T07:33:34;100332.91;;;15.89;62.12
64933;BME280;51446;53.850;10.662;2022-09-17T07:36:01;100339.84;;;15.15;66.46
64933;BME280;51446;53.850;10.662;2022-09-17T07:38:27;100329.97;;;16.07;61.83
64933;BME280;51446;53.850;10.662;2022-09-17T07:41:06;100318.16;;;17.38;57.71
64933;BME280;51446;53.850;10.662;2022-09-17T07:43:34;100325.34;;;18.54;54.31
64933;BME280;51446;53.850;10.662;2022-09-17T07:46:02;100331.13;;;18.72;52.28
64933;BME280;51446;53.850;10.662;2022-09-17T07:48:28;100325.88;;;17.94;53.84
64933;BME280;51446;53.850;10.662;2022-09-17T07:50:54;100330.84;;;17.20;56.02
64933;BME280;51446;53.850;10.662;2022-09-17T07:53:19;100339.50;;;16.22;57.46
64933;BME280;51446;53.850;10.662;2022-09-17T07:55:53;100325.84;;;15.89;59.05
64933;BME280;51446;53.850;10.662;2022-09-17T07:58:20;100339.19;;;15.75;59.58
64933;BME280;51446;53.850;10.662;2022-09-17T08:00:46;100331.22;;;15.83;60.01
64933;BME280;51446;53.850;10.662;2022-09-17T08:03:12;100336.56;;;15.74;60.89
64933;BME280;51446;53.850;10.662;2022-09-17T08:05:37;100327.13;;;15.51;60.44
64933;BME280;51446;53.850;10.662;2022-09-17T08:08:02;100329.88;;;15.45;61.12
64933;BME280;51446;53.850;10.662;2022-09-17T08:10:28;100332.75;;;15.22;61.04
64933;BME280;51446;53.850;10.662;2022-09-17T08:12:55;100329.75;;;14.66;62.48
64933;BME280;51446;53.850;10.662;2022-09-17T08:15:21;100333.69;;;15.16;62.06
64933;BME280;51446;53.850;10.662;2022-09-17T08:17:47;100325.03;;;15.02;63.33
64933;BME280;51446;53.850;10.662;2022-09-17T08:20:14;100329.06;;;14.36;64.57
64933;BME280;51446;53.850;10.662;2022-09-17T08:22:40;100323.38;;;14.93;62.98
64933;BME280;51446;53.850;10.662;2022-09-17T08:25:06;100318.22;;;14.78;63.26
64933;BME280;51446;53.850;10.662;2022-09-17T08:27:32;100315.72;;;14.56;64.61
64933;BME280;51446;53.850;10.662;2022-09-17T08:29:57;100315.22;;;16.52;58.52
64933;BME280;51446;53.850;10.662;2022-09-17T08:32:23;100294.13;;;18.28;52.54
64933;BME280;51446;53.850;10.662;2022-09-17T08:34:48;100307.63;;;18.91;49.14
64933;BME280;51446;53.850;10.662;2022-09-17T08:37:13;100303.75;;;21.33;45.25
64933;BME280;51446;53.850;10.662;2022-09-17T08:39:39;100315.88;;;21.18;44.17
64933;BME280;51446;53.850;10.662;2022-09-17T08:42:11;100310.53;;;20.09;46.12
64933;BME280;51446;53.850;10.662;2022-09-17T08:44:42;100308.22;;;19.02;48.64
64933;BME280;51446;53.850;10.662;2022-09-17T08:47:24;100318.72;;;18.35;51.07
64933;BME280;51446;53.850;10.662;2022-09-17T08:49:55;100308.34;;;20.50;45.70
64933;BME280;51446;53.850;10.662;2022-09-17T08:55:38;100313.03;;;19.85;46.84
64933;BME280;51446;53.850;10.662;2022-09-17T08:58:25;100304.53;;;19.08;48.77
64933;BME280;51446;53.850;10.662;2022-09-17T09:04:00;100308.34;;;20.22;46.56
64933;BME280;51446;53.850;10.662;2022-09-17T09:06:59;100301.75;;;21.14;43.49
64933;BME280;51446;53.850;10.662;2022-09-17T09:09:30;100309.97;;;21.08;42.98
64933;BME280;51446;53.850;10.662;2022-09-17T09:12:04;100303.09;;;21.26;43.02
64933;BME280;51446;53.850;10.662;2022-09-17T09:14:34;100308.19;;;21.34;42.04
64933;BME280;51446;53.850;10.662;2022-09-17T09:17:06;100310.53;;;20.37;44.97
64933;BME280;51446;53.850;10.662;2022-09-17T09:19:40;100303.78;;;20.54;45.20
64933;BME280;51446;53.850;10.662;2022-09-17T09:24:58;100311.72;;;21.59;43.95
64933;BME280;51446;53.850;10.662;2022-09-17T09:27:28;100315.25;;;21.09;43.67
64933;BME280;51446;53.850;10.662;2022-09-17T09:30:09;100323.03;;;21.41;43.27
64933;BME280;51446;53.850;10.662;2022-09-17T09:33:10;100321.84;;;19.23;47.50
64933;BME280;51446;53.850;10.662;2022-09-17T09:35:40;100313.34;;;19.41;47.10
64933;BME280;51446;53.850;10.662;2022-09-17T09:38:30;100318.94;;;17.41;51.07
64933;BME280;51446;53.850;10.662;2022-09-17T09:41:09;100320.25;;;17.65;52.83
64933;BME280;51446;53.850;10.662;2022-09-17T09:43:42;100309.44;;;19.23;49.53
64933;BME280;51446;53.850;10.662;2022-09-17T09:51:48;100298.75;;;21.72;42.47
64933;BME280;51446;53.850;10.662;2022-09-17T09:54:41;100318.44;;;20.94;43.90
64933;BME280;51446;53.850;10.662;2022-09-17T09:57:14;100315.75;;;21.93;42.86
64933;BME280;51446;53.850;10.662;2022-09-17T09:59:41;100302.09;;;21.05;44.51
64933;BME280;51446;53.850;10.662;2022-09-17T10:02:07;100301.84;;;22.53;39.67
64933;BME280;51446;53.850;10.662;2022-09-17T10:04:32;100306.94;;;20.93;42.48
64933;BME280;51446;53.850;10.662;2022-09-17T10:07:06;100300.63;;;19.84;45.86
64933;BME280;51446;53.850;10.662;2022-09-17T10:09:34;100298.84;;;19.85;45.69
64933;BME280;51446;53.850;10.662;2022-09-17T10:12:14;100300.75;;;20.91;45.00
64933;BME280;51446;53.850;10.662;2022-09-17T10:14:41;100315.00;;;20.35;45.83
64933;BME280;51446;53.850;10.662;2022-09-17T10:17:33;100313.19;;;17.64;49.50
64933;BME280;51446;53.850;10.662;2022-09-17T10:22:43;100304.00;;;18.22;49.60
64933;BME280;51446;53.850;10.662;2022-09-17T10:25:33;100307.03;;;21.41;42.63
64933;BME280;51446;53.850;10.662;2022-09-17T10:28:02;100298.53;;;20.79;43.72
64933;BME280;51446;53.850;10.662;2022-09-17T10:30:29;100301.91;;;21.60;40.65
64933;BME280;51446;53.850;10.662;2022-09-17T10:35:38;100296.22;;;19.53;44.75
64933;BME280;51446;53.850;10.662;2022-09-17T10:38:03;100300.88;;;18.42;49.61
64933;BME280;51446;53.850;10.662;2022-09-17T10:40:31;100298.75;;;18.20;49.70
64933;BME280;51446;53.850;10.662;2022-09-17T10:45:39;100300.66;;;18.87;50.49
64933;BME280;51446;53.850;10.662;2022-09-17T10:48:14;100299.72;;;19.22;50.09
64933;BME280;51446;53.850;10.662;2022-09-17T10:50:46;100298.00;;;20.13;47.65
64933;BME280;51446;53.850;10.662;2022-09-17T10:53:15;100294.94;;;19.02;49.53
64933;BME280;51446;53.850;10.662;2022-09-17T10:55:45;100295.97;;;19.61;49.71
64933;BME280;51446;53.850;10.662;2022-09-17T10:58:24;100303.44;;;19.48;49.21
64933;BME280;51446;53.850;10.662;2022-09-17T11:07:00;100301.88;;;22.07;44.07
64933;BME280;51446;53.850;10.662;2022-09-17T11:12:39;100300.22;;;19.98;48.19
64933;BME280;51446;53.850;10.662;2022-09-17T11:18:00;100304.44;;;22.32;43.24
64933;BME280;51446;53.850;10.662;2022-09-17T11:23:41;100295.84;;;22.02;44.74
64933;BME280;51446;53.850;10.662;2022-09-17T11:26:31;100303.84;;;22.68;42.55
64933;BME280;51446;53.850;10.662;2022-09-17T11:34:49;100301.97;;;21.58;43.89
64933;BME280;51446;53.850;10.662;2022-09-17T11:37:29;100300.44;;;21.01;44.44
64933;BME280;51446;53.850;10.662;2022-09-17T11:40:02;100291.25;;;20.01;47.47
64933;BME280;51446;53.850;10.662;2022-09-17T11:42:38;100294.41;;;20.14;47.24
64933;BME280;51446;53.850;10.662;2022-09-17T11:45:24;100313.22;;;18.07;50.63
64933;BME280;51446;53.850;10.662;2022-09-17T11:47:57;100312.47;;;17.11;54.48
64933;BME280;51446;53.850;10.662;2022-09-17T11:50:31;100304.78;;;17.84;52.98
64933;BME280;51446;53.850;10.662;2022-09-17T11:53:05;100297.31;;;18.43;52.00
64933;BME280;51446;53.850;10.662;2022-09-17T11:58:11;100303.44;;;17.66;52.96
64933;BME280;51446;53.850;10.662;2022-09-17T12:00:45;100295.47;;;18.81;50.97
64933;BME280;51446;53.850;10.662;2022-09-17T12:05:47;100290.81;;;19.86;47.09
64933;BME280;51446;53.850;10.662;2022-09-17T12:08:18;100294.06;;;19.35;48.06
64933;BME280;51446;53.850;10.662;2022-09-17T12:10:53;100297.97;;;18.52;50.27
64933;BME280;51446;53.850;10.662;2022-09-17T12:13:30;100300.47;;;17.82;52.11
64933;BME280;51446;53.850;10.662;2022-09-17T12:16:20;100296.75;;;17.89;52.03
64933;BME280;51446;53.850;10.662;2022-09-17T12:18:53;100299.84;;;17.69;53.07
64933;BME280;51446;53.850;10.662;2022-09-17T12:21:28;100298.00;;;17.73;53.53
64933;BME280;51446;53.850;10.662;2022-09-17T12:24:22;100291.06;;;19.14;50.50
64933;BME280;51446;53.850;10.662;2022-09-17T12:27:22;100291.63;;;18.20;50.12
64933;BME280;51446;53.850;10.662;2022-09-17T12:30:09;100286.19;;;18.99;50.84
64933;BME280;51446;53.850;10.662;2022-09-17T12:35:20;100301.28;;;18.25;52.10
64933;BME280;51446;53.850;10.662;2022-09-17T12:40:50;100287.66;;;17.59;54.72
64933;BME280;51446;53.850;10.662;2022-09-17T12:43:39;100283.38;;;17.95;55.25
64933;BME280;51446;53.850;10.662;2022-09-17T12:48:44;100280.03;;;18.97;52.38
64933;BME280;51446;53.850;10.662;2022-09-17T12:54:31;100279.19;;;18.24;55.71
64933;BME280;51446;53.850;10.662;2022-09-17T13:00:09;100279.50;;;17.69;53.67
64933;BME280;51446;53.850;10.662;2022-09-17T13:02:46;100287.81;;;17.52;56.09
64933;BME280;51446;53.850;10.662;2022-09-17T13:08:48;100283.84;;;18.85;53.09
64933;BME280;51446;53.850;10.662;2022-09-17T13:11:56;100281.38;;;18.79;52.97
64933;BME280;51446;53.850;10.662;2022-09-17T13:17:45;100274.34;;;18.76;53.75
64933;BME280;51446;53.850;10.662;2022-09-17T13:22:48;100262.31;;;17.86;53.51
64933;BME280;51446;53.850;10.662;2022-09-17T13:25:15;100259.94;;;17.75;54.52
64933;BME280;51446;53.850;10.662;2022-09-17T13:27:42;100265.03;;;18.24;53.81
64933;BME280;51446;53.850;10.662;2022-09-17T13:30:10;100275.50;;;17.92;54.01
64933;BME280;51446;53.850;10.662;2022-09-17T13:37:35;100265.13;;;18.19;53.82
64933;BME280;51446;53.850;10.662;2022-09-17T13:40:02;100265.94;;;17.83;54.18
64933;BME280;51446;53.850;10.662;2022-09-17T13:42:43;100279.84;;;16.57;53.59
64933;BME280;51446;53.850;10.662;2022-09-17T13:45:13;100297.41;;;15.34;57.55
64933;BME280;51446;53.850;10.662;2022-09-17T13:47:49;100292.78;;;14.67;60.29
64933;BME280;51446;53.850;10.662;2022-09-17T13:50:52;100299.50;;;15.04;60.09
64933;BME280;51446;53.850;10.662;2022-09-17T13:53:19;100295.88;;;15.14;60.09
64933;BME280;51446;53.850;10.662;2022-09-17T13:55:52;100307.59;;;14.85;61.51
64933;BME280;51446;53.850;10.662;2022-09-17T14:08:28;100321.41;;;13.99;68.23
64933;BME280;51446;53.850;10.662;2022-09-17T14:10:57;100322.97;;;14.29;68.66
64933;BME280;51446;53.850;10.662;2022-09-17T14:16:00;100324.84;;;14.09;70.07
64933;BME280;51446;53.850;10.662;2022-09-17T14:20:52;100317.97;;;13.77;71.94
64933;BME280;51446;53.850;10.662;2022-09-17T14:23:19;100312.63;;;13.92;72.82
64933;BME280;51446;53.850;10.662;2022-09-17T14:25:51;100306.59;;;13.65;73.52
64933;BME280;51446;53.850;10.662;2022-09-17T14:28:28;100317.06;;;13.85;73.04
64933;BME280;51446;53.850;10.662;2022-09-17T14:30:57;100317.84;;;14.04;73.28
64933;BME280;51446;53.850;10.662;2022-09-17T14:33:26;100321.56;;;13.60;75.07
64933;BME280;51446;53.850;10.662;2022-09-17T14:36:07;100316.25;;;13.69;76.87
64933;BME280;51446;53.850;10.662;2022-09-17T14:38:40;100318.03;;;13.66;76.77
64933;BME280;51446;53.850;10.662;2022-09-17T14:43:52;100316.25;;;13.77;76.99
64933;BME280;51446;53.850;10.662;2022-09-17T14:49:23;100315.50;;;13.29;78.44
64933;BME280;51446;53.850;10.662;2022-09-17T14:51:51;100308.41;;;13.62;79.24
64933;BME280;51446;53.850;10.662;2022-09-17T14:56:54;100305.75;;;13.62;78.57
64933;BME280;51446;53.850;10.662;2022-09-17T15:01:50;100308.22;;;13.99;79.67